ダラス/フォートワース の空港の天気 - METARとTAF

ダラス・フォートワース国際空港 ( KDFW / DFW ) - アメリカ テキサス州ダラス & フォートワース
飛行場実況気象(Metar)
観測時間09/25 15:53 CDT (09/25 20:53 UTC)
風向・風速北東 4m/s
視程10km以上
天気現象
少しの雲 雲底高度 2130m
全天の4割程度の雲 雲底高度 5180m
全天の4割程度の雲 雲底高度 7620m
気温36.1℃
湿度27%
気圧1011.7hPa
METARKDFW 252053Z COR 04008KT 10SM FEW070 SCT170 SCT250 36/14 A2991 RMK AO2 LTG DSNT E SLP117 CB DSNT NE-SE-SW MOV S TCU DSNT W-NW T03610139 56022
過去の天気等 Google飛行場航空写真 Wunderground天気予報

過去48時間のMETAR

飛行場予報(TAF)
発表時間: 9/25 15:56 CDT (9/25 20:56 UTC)
予報対象時間: 25日16時 CDT ~ 26日19時 CDT
風向・風速北 5m/s
視程10km以上
天気現象周辺で雷
全天の4割程度の積乱雲 雲底高度 2130m
全天の8割程度の雲 雲底高度 4570m
25日19時 CDT から
風向・風速北北東 6m/s
視程10km以上
全天の8割程度の雲 雲底高度 2740m
26日9時 CDT から
風向・風速北東 7m/s
視程10km以上
少しの雲 雲底高度 7620m
KDFW 252056Z 2521/2624 36010KT P6SM VCTS SCT070CB BKN150
FM260000 03011KT P6SM BKN090
FM261400 04013KT P6SM FEW250